sensor_id;sensor_type;location;lat;lon;timestamp;pressure;altitude;pressure_sealevel;temperature;humidity
42633;BME280;28261;53.304;-6.284;2023-07-31T00:00:28;99704.53;;;16.18;100.00
42633;BME280;28261;53.304;-6.284;2023-07-31T00:02:32;99699.31;;;16.17;100.00
42633;BME280;28261;53.304;-6.284;2023-07-31T00:04:38;99699.47;;;16.15;100.00
42633;BME280;28261;53.304;-6.284;2023-07-31T00:06:42;99702.31;;;16.14;100.00
42633;BME280;28261;53.304;-6.284;2023-07-31T00:08:48;99690.81;;;16.13;100.00
42633;BME280;28261;53.304;-6.284;2023-07-31T00:10:52;99695.28;;;16.13;100.00
42633;BME280;28261;53.304;-6.284;2023-07-31T00:12:57;99691.81;;;16.12;100.00
42633;BME280;28261;53.304;-6.284;2023-07-31T00:15:02;99689.13;;;16.12;100.00
42633;BME280;28261;53.304;-6.284;2023-07-31T00:17:08;99679.25;;;16.13;100.00
42633;BME280;28261;53.304;-6.284;2023-07-31T00:19:13;99690.81;;;16.13;100.00
42633;BME280;28261;53.304;-6.284;2023-07-31T00:21:20;99674.75;;;16.13;100.00
42633;BME280;28261;53.304;-6.284;2023-07-31T00:23:24;99684.44;;;16.14;100.00
42633;BME280;28261;53.304;-6.284;2023-07-31T00:25:29;99676.28;;;16.16;100.00
42633;BME280;28261;53.304;-6.284;2023-07-31T00:27:32;99683.28;;;16.17;100.00
42633;BME280;28261;53.304;-6.284;2023-07-31T00:29:36;99681.44;;;16.17;100.00
42633;BME280;28261;53.304;-6.284;2023-07-31T00:31:41;99679.78;;;16.16;100.00
42633;BME280;28261;53.304;-6.284;2023-07-31T00:33:45;99684.13;;;16.17;100.00
42633;BME280;28261;53.304;-6.284;2023-07-31T00:35:49;99691.28;;;16.17;100.00
42633;BME280;28261;53.304;-6.284;2023-07-31T00:37:57;99684.13;;;16.17;100.00
42633;BME280;28261;53.304;-6.284;2023-07-31T00:40:01;99679.78;;;16.16;100.00
42633;BME280;28261;53.304;-6.284;2023-07-31T00:42:06;99671.91;;;16.15;100.00
42633;BME280;28261;53.304;-6.284;2023-07-31T00:44:10;99666.56;;;16.15;100.00
42633;BME280;28261;53.304;-6.284;2023-07-31T00:46:15;99664.91;;;16.14;100.00
42633;BME280;28261;53.304;-6.284;2023-07-31T00:48:19;99660.38;;;16.14;100.00
42633;BME280;28261;53.304;-6.284;2023-07-31T00:50:24;99652.53;;;16.13;100.00
42633;BME280;28261;53.304;-6.284;2023-07-31T00:52:29;99667.75;;;16.12;100.00
42633;BME280;28261;53.304;-6.284;2023-07-31T00:54:35;99664.91;;;16.14;100.00
42633;BME280;28261;53.304;-6.284;2023-07-31T00:56:40;99658.72;;;16.13;100.00
42633;BME280;28261;53.304;-6.284;2023-07-31T00:58:45;99664.91;;;16.14;100.00
42633;BME280;28261;53.304;-6.284;2023-07-31T01:00:49;99659.53;;;16.14;100.00
42633;BME280;28261;53.304;-6.284;2023-07-31T01:02:54;99670.25;;;16.14;100.00
42633;BME280;28261;53.304;-6.284;2023-07-31T01:04:59;99670.41;;;16.12;100.00
42633;BME280;28261;53.304;-6.284;2023-07-31T01:07:13;99669.41;;;16.13;100.00
42633;BME280;28261;53.304;-6.284;2023-07-31T01:09:23;99672.25;;;16.12;100.00
42633;BME280;28261;53.304;-6.284;2023-07-31T01:11:35;99669.72;;;16.10;100.00
42633;BME280;28261;53.304;-6.284;2023-07-31T01:13:43;99677.75;;;16.10;100.00
42633;BME280;28261;53.304;-6.284;2023-07-31T01:15:48;99675.94;;;16.11;100.00
42633;BME280;28261;53.304;-6.284;2023-07-31T01:17:52;99669.72;;;16.10;100.00
42633;BME280;28261;53.304;-6.284;2023-07-31T01:19:59;99666.06;;;16.11;100.00
42633;BME280;28261;53.304;-6.284;2023-07-31T01:22:16;99664.38;;;16.10;100.00
42633;BME280;28261;53.304;-6.284;2023-07-31T01:24:28;99673.41;;;16.09;100.00
42633;BME280;28261;53.304;-6.284;2023-07-31T01:26:37;99662.72;;;16.09;100.00
42633;BME280;28261;53.304;-6.284;2023-07-31T01:28:49;99668.06;;;16.09;100.00
42633;BME280;28261;53.304;-6.284;2023-07-31T01:30:55;99649.53;;;16.07;100.00
42633;BME280;28261;53.304;-6.284;2023-07-31T01:33:03;99656.88;;;16.05;100.00
42633;BME280;28261;53.304;-6.284;2023-07-31T01:35:10;99656.03;;;16.05;100.00
42633;BME280;28261;53.304;-6.284;2023-07-31T01:37:15;99650.69;;;16.05;100.00
42633;BME280;28261;53.304;-6.284;2023-07-31T01:39:20;99648.03;;;16.05;100.00
42633;BME280;28261;53.304;-6.284;2023-07-31T01:41:24;99656.22;;;16.03;100.00
42633;BME280;28261;53.304;-6.284;2023-07-31T01:43:29;99655.53;;;16.01;100.00
42633;BME280;28261;53.304;-6.284;2023-07-31T01:45:34;99652.03;;;16.01;100.00
42633;BME280;28261;53.304;-6.284;2023-07-31T01:47:39;99653.19;;;15.98;100.00
42633;BME280;28261;53.304;-6.284;2023-07-31T01:49:43;99653.34;;;15.97;100.00
42633;BME280;28261;53.304;-6.284;2023-07-31T01:51:48;99661.53;;;15.95;100.00
42633;BME280;28261;53.304;-6.284;2023-07-31T01:53:51;99665.03;;;15.96;100.00
42633;BME280;28261;53.304;-6.284;2023-07-31T01:55:56;99666.03;;;15.95;100.00
42633;BME280;28261;53.304;-6.284;2023-07-31T01:58:00;99664.34;;;15.94;100.00
42633;BME280;28261;53.304;-6.284;2023-07-31T02:00:08;99663.69;;;15.92;100.00
42633;BME280;28261;53.304;-6.284;2023-07-31T02:02:15;99658.50;;;15.90;100.00
42633;BME280;28261;53.304;-6.284;2023-07-31T02:04:20;99659.50;;;15.89;100.00
42633;BME280;28261;53.304;-6.284;2023-07-31T02:06:25;99670.38;;;15.87;100.00
42633;BME280;28261;53.304;-6.284;2023-07-31T02:08:29;99675.72;;;15.87;100.00
42633;BME280;28261;53.304;-6.284;2023-07-31T02:10:34;99679.38;;;15.86;100.00
42633;BME280;28261;53.304;-6.284;2023-07-31T02:12:38;99674.03;;;15.86;100.00
42633;BME280;28261;53.304;-6.284;2023-07-31T02:14:43;99677.56;;;15.87;100.00
42633;BME280;28261;53.304;-6.284;2023-07-31T02:16:49;99678.38;;;15.87;100.00
42633;BME280;28261;53.304;-6.284;2023-07-31T02:18:53;99681.06;;;15.87;100.00
42633;BME280;28261;53.304;-6.284;2023-07-31T02:20:58;99666.69;;;15.88;100.00
42633;BME280;28261;53.304;-6.284;2023-07-31T02:23:02;99674.72;;;15.88;100.00
42633;BME280;28261;53.304;-6.284;2023-07-31T02:25:06;99677.38;;;15.88;100.00
42633;BME280;28261;53.304;-6.284;2023-07-31T02:27:10;99674.72;;;15.88;100.00
42633;BME280;28261;53.304;-6.284;2023-07-31T02:29:15;99664.69;;;15.90;100.00
42633;BME280;28261;53.304;-6.284;2023-07-31T02:31:20;99678.75;;;15.93;100.00
42633;BME280;28261;53.304;-6.284;2023-07-31T02:33:26;99669.03;;;15.92;100.00
42633;BME280;28261;53.304;-6.284;2023-07-31T02:35:30;99664.69;;;15.90;100.00
42633;BME280;28261;53.304;-6.284;2023-07-31T02:37:36;99658.50;;;15.90;100.00
42633;BME280;28261;53.304;-6.284;2023-07-31T02:39:41;99656.00;;;15.88;100.00
42633;BME280;28261;53.304;-6.284;2023-07-31T02:41:46;99657.66;;;15.89;100.00
42633;BME280;28261;53.304;-6.284;2023-07-31T02:43:51;99663.84;;;15.90;100.00
42633;BME280;28261;53.304;-6.284;2023-07-31T02:45:56;99662.19;;;15.89;100.00
42633;BME280;28261;53.304;-6.284;2023-07-31T02:48:01;99650.66;;;15.88;100.00
42633;BME280;28261;53.304;-6.284;2023-07-31T02:50:08;99662.34;;;15.87;100.00
42633;BME280;28261;53.304;-6.284;2023-07-31T02:52:13;99677.56;;;15.87;100.00
42633;BME280;28261;53.304;-6.284;2023-07-31T02:54:17;99666.00;;;15.86;100.00
42633;BME280;28261;53.304;-6.284;2023-07-31T02:56:23;99658.97;;;15.85;100.00
42633;BME280;28261;53.304;-6.284;2023-07-31T02:58:27;99656.31;;;15.85;100.00
42633;BME280;28261;53.304;-6.284;2023-07-31T03:00:31;99665.19;;;15.86;100.00
42633;BME280;28261;53.304;-6.284;2023-07-31T03:02:35;99653.66;;;15.85;100.00
42633;BME280;28261;53.304;-6.284;2023-07-31T03:04:39;99648.28;;;15.85;100.00
42633;BME280;28261;53.304;-6.284;2023-07-31T03:06:45;99650.97;;;15.85;100.00
42633;BME280;28261;53.304;-6.284;2023-07-31T03:08:50;99650.31;;;15.83;100.00
42633;BME280;28261;53.304;-6.284;2023-07-31T03:10:56;99655.50;;;15.85;100.00
42633;BME280;28261;53.304;-6.284;2023-07-31T03:13:02;99653.81;;;15.84;100.00
42633;BME280;28261;53.304;-6.284;2023-07-31T03:15:06;99655.66;;;15.83;100.00
42633;BME280;28261;53.304;-6.284;2023-07-31T03:17:11;99653.00;;;15.83;100.00
42633;BME280;28261;53.304;-6.284;2023-07-31T03:19:16;99651.31;;;15.82;100.00
42633;BME280;28261;53.304;-6.284;2023-07-31T03:21:20;99651.47;;;15.81;100.00
42633;BME280;28261;53.304;-6.284;2023-07-31T03:23:27;99643.47;;;15.81;100.00
42633;BME280;28261;53.304;-6.284;2023-07-31T03:25:31;99642.63;;;15.80;100.00
42633;BME280;28261;53.304;-6.284;2023-07-31T03:27:36;99642.63;;;15.80;100.00
42633;BME280;28261;53.304;-6.284;2023-07-31T03:29:41;99639.25;;;15.78;100.00
42633;BME280;28261;53.304;-6.284;2023-07-31T03:31:45;99635.91;;;15.76;100.00
42633;BME280;28261;53.304;-6.284;2023-07-31T03:33:49;99637.91;;;15.74;100.00
42633;BME280;28261;53.304;-6.284;2023-07-31T03:35:54;99637.06;;;15.73;100.00
42633;BME280;28261;53.304;-6.284;2023-07-31T03:37:59;99644.22;;;15.73;100.00
42633;BME280;28261;53.304;-6.284;2023-07-31T03:40:05;99645.25;;;15.72;100.00
42633;BME280;28261;53.304;-6.284;2023-07-31T03:42:10;99646.06;;;15.72;100.00
42633;BME280;28261;53.304;-6.284;2023-07-31T03:44:14;99639.91;;;15.72;100.00
42633;BME280;28261;53.304;-6.284;2023-07-31T03:46:18;99636.38;;;15.71;100.00
42633;BME280;28261;53.304;-6.284;2023-07-31T03:48:23;99627.53;;;15.71;100.00
42633;BME280;28261;53.304;-6.284;2023-07-31T03:50:27;99629.22;;;15.72;100.00
42633;BME280;28261;53.304;-6.284;2023-07-31T03:52:30;99624.53;;;15.74;100.00
42633;BME280;28261;53.304;-6.284;2023-07-31T03:54:34;99613.03;;;15.73;100.00
42633;BME280;28261;53.304;-6.284;2023-07-31T03:56:39;99623.53;;;15.75;100.00
42633;BME280;28261;53.304;-6.284;2023-07-31T03:58:44;99628.72;;;15.77;100.00
42633;BME280;28261;53.304;-6.284;2023-07-31T04:00:47;99635.75;;;15.78;100.00
42633;BME280;28261;53.304;-6.284;2023-07-31T04:02:50;99633.25;;;15.76;100.00
42633;BME280;28261;53.304;-6.284;2023-07-31T04:04:54;99635.06;;;15.76;100.00
42633;BME280;28261;53.304;-6.284;2023-07-31T04:06:58;99627.91;;;15.76;100.00
42633;BME280;28261;53.304;-6.284;2023-07-31T04:09:02;99625.22;;;15.76;100.00
42633;BME280;28261;53.304;-6.284;2023-07-31T04:11:06;99625.22;;;15.76;100.00
42633;BME280;28261;53.304;-6.284;2023-07-31T04:13:12;99623.53;;;15.75;100.00
42633;BME280;28261;53.304;-6.284;2023-07-31T04:15:15;99628.88;;;15.75;100.00
42633;BME280;28261;53.304;-6.284;2023-07-31T04:17:19;99635.22;;;15.74;100.00
42633;BME280;28261;53.304;-6.284;2023-07-31T04:19:24;99644.91;;;15.75;100.00
42633;BME280;28261;53.304;-6.284;2023-07-31T04:21:27;99644.91;;;15.75;100.00
42633;BME280;28261;53.304;-6.284;2023-07-31T04:23:31;99652.94;;;15.75;100.00
42633;BME280;28261;53.304;-6.284;2023-07-31T04:25:35;99657.41;;;15.74;100.00
42633;BME280;28261;53.304;-6.284;2023-07-31T04:27:40;99667.97;;;15.76;100.00
42633;BME280;28261;53.304;-6.284;2023-07-31T04:29:45;99667.97;;;15.76;100.00
42633;BME280;28261;53.304;-6.284;2023-07-31T04:31:49;99651.09;;;15.76;100.00
42633;BME280;28261;53.304;-6.284;2023-07-31T04:33:53;99642.06;;;15.77;100.00
42633;BME280;28261;53.304;-6.284;2023-07-31T04:35:57;99642.91;;;15.77;100.00
42633;BME280;28261;53.304;-6.284;2023-07-31T04:38:01;99640.41;;;15.76;100.00
42633;BME280;28261;53.304;-6.284;2023-07-31T04:40:04;99651.09;;;15.76;100.00
42633;BME280;28261;53.304;-6.284;2023-07-31T04:42:08;99656.59;;;15.74;100.00
42633;BME280;28261;53.304;-6.284;2023-07-31T04:44:10;99650.44;;;15.73;100.00
42633;BME280;28261;53.304;-6.284;2023-07-31T04:46:16;99640.72;;;15.72;100.00
42633;BME280;28261;53.304;-6.284;2023-07-31T04:48:19;99631.91;;;15.72;100.00
42633;BME280;28261;53.304;-6.284;2023-07-31T04:50:23;99631.91;;;15.72;100.00
42633;BME280;28261;53.304;-6.284;2023-07-31T04:52:27;99637.22;;;15.72;100.00
42633;BME280;28261;53.304;-6.284;2023-07-31T04:54:31;99630.88;;;15.73;100.00
42633;BME280;28261;53.304;-6.284;2023-07-31T04:56:34;99635.22;;;15.74;100.00
42633;BME280;28261;53.304;-6.284;2023-07-31T04:58:39;99627.03;;;15.76;100.00
42633;BME280;28261;53.304;-6.284;2023-07-31T05:00:42;99635.91;;;15.76;100.00
42633;BME280;28261;53.304;-6.284;2023-07-31T05:02:47;99646.59;;;15.76;100.00
42633;BME280;28261;53.304;-6.284;2023-07-31T05:04:51;99649.28;;;15.76;100.00
42633;BME280;28261;53.304;-6.284;2023-07-31T05:06:55;99663.63;;;15.75;100.00
42633;BME280;28261;53.304;-6.284;2023-07-31T05:08:58;99667.13;;;15.76;100.00
42633;BME280;28261;53.304;-6.284;2023-07-31T05:11:02;99663.63;;;15.75;100.00
42633;BME280;28261;53.304;-6.284;2023-07-31T05:13:06;99660.09;;;15.74;100.00
42633;BME280;28261;53.304;-6.284;2023-07-31T05:15:10;99666.28;;;15.75;100.00
42633;BME280;28261;53.304;-6.284;2023-07-31T05:17:13;99664.63;;;15.74;100.00
42633;BME280;28261;53.304;-6.284;2023-07-31T05:19:19;99673.63;;;15.73;100.00
42633;BME280;28261;53.304;-6.284;2023-07-31T05:21:22;99663.09;;;15.71;100.00
42633;BME280;28261;53.304;-6.284;2023-07-31T05:23:26;99670.13;;;15.72;100.00
42633;BME280;28261;53.304;-6.284;2023-07-31T05:25:30;99658.75;;;15.70;100.00
42633;BME280;28261;53.304;-6.284;2023-07-31T05:27:34;99664.25;;;15.69;100.00
42633;BME280;28261;53.304;-6.284;2023-07-31T05:29:38;99665.28;;;15.68;100.00
42633;BME280;28261;53.304;-6.284;2023-07-31T05:31:41;99663.59;;;15.67;100.00
42633;BME280;28261;53.304;-6.284;2023-07-31T05:33:45;99658.25;;;15.67;100.00
42633;BME280;28261;53.304;-6.284;2023-07-31T05:35:50;99664.75;;;15.64;100.00
42633;BME280;28261;53.304;-6.284;2023-07-31T05:37:54;99653.25;;;15.64;100.00
42633;BME280;28261;53.304;-6.284;2023-07-31T05:39:58;99646.22;;;15.63;100.00
42633;BME280;28261;53.304;-6.284;2023-07-31T05:42:02;99647.22;;;15.62;100.00
42633;BME280;28261;53.304;-6.284;2023-07-31T05:44:06;99658.06;;;15.60;100.00
42633;BME280;28261;53.304;-6.284;2023-07-31T05:46:11;99648.38;;;15.59;100.00
42633;BME280;28261;53.304;-6.284;2023-07-31T05:48:16;99650.69;;;15.54;100.00
42633;BME280;28261;53.304;-6.284;2023-07-31T05:50:23;99655.38;;;15.52;100.00
42633;BME280;28261;53.304;-6.284;2023-07-31T05:52:28;99648.50;;;15.49;100.00
42633;BME280;28261;53.304;-6.284;2023-07-31T05:54:32;99657.50;;;15.48;100.00
42633;BME280;28261;53.304;-6.284;2023-07-31T05:56:36;99655.81;;;15.47;100.00
42633;BME280;28261;53.304;-6.284;2023-07-31T05:58:41;99655.00;;;15.47;100.00
42633;BME280;28261;53.304;-6.284;2023-07-31T06:00:46;99655.16;;;15.45;100.00
42633;BME280;28261;53.304;-6.284;2023-07-31T06:02:55;99647.31;;;15.44;100.00
42633;BME280;28261;53.304;-6.284;2023-07-31T06:05:00;99645.81;;;15.41;100.00
42633;BME280;28261;53.304;-6.284;2023-07-31T06:07:04;99639.78;;;15.39;100.00
42633;BME280;28261;53.304;-6.284;2023-07-31T06:09:10;99627.28;;;15.39;100.00
42633;BME280;28261;53.304;-6.284;2023-07-31T06:11:14;99618.41;;;15.39;100.00
42633;BME280;28261;53.304;-6.284;2023-07-31T06:13:18;99611.09;;;15.41;100.00
42633;BME280;28261;53.304;-6.284;2023-07-31T06:15:23;99611.25;;;15.39;100.00
42633;BME280;28261;53.304;-6.284;2023-07-31T06:17:28;99617.59;;;15.38;100.00
42633;BME280;28261;53.304;-6.284;2023-07-31T06:19:32;99609.75;;;15.37;100.00
42633;BME280;28261;53.304;-6.284;2023-07-31T06:21:40;99616.75;;;15.38;100.00
42633;BME280;28261;53.304;-6.284;2023-07-31T06:23:46;99607.41;;;15.34;100.00
42633;BME280;28261;53.304;-6.284;2023-07-31T06:25:53;99602.22;;;15.32;100.00
42633;BME280;28261;53.304;-6.284;2023-07-31T06:27:58;99602.34;;;15.31;100.00
42633;BME280;28261;53.304;-6.284;2023-07-31T06:30:04;99599.69;;;15.31;100.00
42633;BME280;28261;53.304;-6.284;2023-07-31T06:32:09;99593.53;;;15.30;100.00
42633;BME280;28261;53.304;-6.284;2023-07-31T06:34:15;99595.22;;;15.31;100.00
42633;BME280;28261;53.304;-6.284;2023-07-31T06:36:20;99602.06;;;15.34;100.00
42633;BME280;28261;53.304;-6.284;2023-07-31T06:38:25;99609.91;;;15.35;100.00
42633;BME280;28261;53.304;-6.284;2023-07-31T06:40:31;99604.22;;;15.38;100.00
42633;BME280;28261;53.304;-6.284;2023-07-31T06:42:37;99612.94;;;15.40;100.00
42633;BME280;28261;53.304;-6.284;2023-07-31T06:44:42;99611.91;;;15.42;100.00
42633;BME280;28261;53.304;-6.284;2023-07-31T06:46:46;99625.25;;;15.42;100.00
42633;BME280;28261;53.304;-6.284;2023-07-31T06:48:50;99629.78;;;15.41;100.00
42633;BME280;28261;53.304;-6.284;2023-07-31T06:50:55;99634.97;;;15.43;100.00
42633;BME280;28261;53.304;-6.284;2023-07-31T06:52:59;99635.13;;;15.41;100.00
42633;BME280;28261;53.304;-6.284;2023-07-31T06:55:15;99639.63;;;15.40;100.00
42633;BME280;28261;53.304;-6.284;2023-07-31T06:57:23;99647.66;;;15.40;100.00
42633;BME280;28261;53.304;-6.284;2023-07-31T06:59:29;99647.50;;;15.42;100.00
42633;BME280;28261;53.304;-6.284;2023-07-31T07:01:34;99629.78;;;15.41;100.00
42633;BME280;28261;53.304;-6.284;2023-07-31T07:03:39;99638.78;;;15.40;100.00
42633;BME280;28261;53.304;-6.284;2023-07-31T07:05:43;99619.94;;;15.42;100.00
42633;BME280;28261;53.304;-6.284;2023-07-31T07:07:49;99613.59;;;15.43;100.00
42633;BME280;28261;53.304;-6.284;2023-07-31T07:09:56;99607.44;;;15.42;100.00
42633;BME280;28261;53.304;-6.284;2023-07-31T07:12:02;99598.41;;;15.43;100.00
42633;BME280;28261;53.304;-6.284;2023-07-31T07:14:08;99602.75;;;15.44;100.00
42633;BME280;28261;53.304;-6.284;2023-07-31T07:16:14;99603.44;;;15.46;100.00
42633;BME280;28261;53.304;-6.284;2023-07-31T07:18:19;99602.41;;;15.47;100.00
42633;BME280;28261;53.304;-6.284;2023-07-31T07:20:25;99607.63;;;15.49;100.00
42633;BME280;28261;53.304;-6.284;2023-07-31T07:22:31;99611.81;;;15.51;100.00
42633;BME280;28261;53.304;-6.284;2023-07-31T07:24:35;99613.44;;;15.52;100.00
42633;BME280;28261;53.304;-6.284;2023-07-31T07:26:40;99621.31;;;15.54;100.00
42633;BME280;28261;53.304;-6.284;2023-07-31T07:28:45;99618.50;;;15.55;100.00
42633;BME280;28261;53.304;-6.284;2023-07-31T07:30:51;99621.16;;;15.55;100.00
42633;BME280;28261;53.304;-6.284;2023-07-31T07:32:58;99619.31;;;15.56;100.00
42633;BME280;28261;53.304;-6.284;2023-07-31T07:35:02;99614.81;;;15.56;100.00
42633;BME280;28261;53.304;-6.284;2023-07-31T07:37:06;99622.97;;;15.55;100.00
42633;BME280;28261;53.304;-6.284;2023-07-31T07:39:11;99623.16;;;15.53;100.00
42633;BME280;28261;53.304;-6.284;2023-07-31T07:41:15;99612.47;;;15.53;100.00
42633;BME280;28261;53.304;-6.284;2023-07-31T07:43:19;99613.44;;;15.52;100.00
42633;BME280;28261;53.304;-6.284;2023-07-31T07:45:24;99616.28;;;15.51;100.00
42633;BME280;28261;53.304;-6.284;2023-07-31T07:47:29;99602.94;;;15.51;100.00
42633;BME280;28261;53.304;-6.284;2023-07-31T07:49:35;99594.09;;;15.50;100.00
42633;BME280;28261;53.304;-6.284;2023-07-31T07:51:39;99604.78;;;15.50;100.00
42633;BME280;28261;53.304;-6.284;2023-07-31T07:53:44;99590.56;;;15.50;100.00
42633;BME280;28261;53.304;-6.284;2023-07-31T07:55:48;99589.59;;;15.51;100.00
42633;BME280;28261;53.304;-6.284;2023-07-31T07:57:53;99590.94;;;15.55;100.00
42633;BME280;28261;53.304;-6.284;2023-07-31T07:59:57;99592.09;;;15.61;100.00
42633;BME280;28261;53.304;-6.284;2023-07-31T08:02:01;99593.63;;;15.63;100.00
42633;BME280;28261;53.304;-6.284;2023-07-31T08:04:05;99593.63;;;15.63;100.00
42633;BME280;28261;53.304;-6.284;2023-07-31T08:06:11;99606.81;;;15.65;100.00
42633;BME280;28261;53.304;-6.284;2023-07-31T08:08:15;99605.81;;;15.66;100.00
42633;BME280;28261;53.304;-6.284;2023-07-31T08:10:19;99598.50;;;15.68;100.00
42633;BME280;28261;53.304;-6.284;2023-07-31T08:12:23;99602.97;;;15.67;100.00
42633;BME280;28261;53.304;-6.284;2023-07-31T08:14:27;99610.16;;;15.67;100.00
42633;BME280;28261;53.304;-6.284;2023-07-31T08:16:34;99609.00;;;15.69;100.00
42633;BME280;28261;53.304;-6.284;2023-07-31T08:18:39;99616.16;;;15.69;100.00
42633;BME280;28261;53.304;-6.284;2023-07-31T08:20:45;99622.19;;;15.71;100.00
42633;BME280;28261;53.304;-6.284;2023-07-31T08:22:52;99643.41;;;15.72;100.00
42633;BME280;28261;53.304;-6.284;2023-07-31T08:24:56;99636.22;;;15.73;100.00
42633;BME280;28261;53.304;-6.284;2023-07-31T08:27:01;99646.91;;;15.73;100.00
42633;BME280;28261;53.304;-6.284;2023-07-31T08:29:04;99641.56;;;15.73;100.00
42633;BME280;28261;53.304;-6.284;2023-07-31T08:31:09;99650.25;;;15.75;100.00
42633;BME280;28261;53.304;-6.284;2023-07-31T08:33:13;99653.59;;;15.77;100.00
42633;BME280;28261;53.304;-6.284;2023-07-31T08:35:17;99649.94;;;15.78;100.00
42633;BME280;28261;53.304;-6.284;2023-07-31T08:37:21;99656.09;;;15.79;100.00
42633;BME280;28261;53.304;-6.284;2023-07-31T08:39:27;99654.44;;;15.78;100.00
42633;BME280;28261;53.304;-6.284;2023-07-31T08:41:37;99636.22;;;15.73;100.00
42633;BME280;28261;53.304;-6.284;2023-07-31T08:43:41;99640.22;;;15.69;100.00
42633;BME280;28261;53.304;-6.284;2023-07-31T08:45:45;99644.22;;;15.65;100.00
42633;BME280;28261;53.304;-6.284;2023-07-31T08:47:51;99633.53;;;15.65;100.00
42633;BME280;28261;53.304;-6.284;2023-07-31T08:49:56;99634.22;;;15.67;100.00
42633;BME280;28261;53.304;-6.284;2023-07-31T08:52:01;99622.84;;;15.73;100.00
42633;BME280;28261;53.304;-6.284;2023-07-31T08:54:06;99624.03;;;15.79;100.00
42633;BME280;28261;53.304;-6.284;2023-07-31T08:56:12;99623.59;;;15.83;100.00
42633;BME280;28261;53.304;-6.284;2023-07-31T08:58:18;99615.59;;;15.92;100.00
42633;BME280;28261;53.304;-6.284;2023-07-31T09:00:22;99608.38;;;15.92;100.00
42633;BME280;28261;53.304;-6.284;2023-07-31T09:02:34;99611.06;;;15.92;100.00
42633;BME280;28261;53.304;-6.284;2023-07-31T09:04:41;99597.69;;;15.92;100.00
42633;BME280;28261;53.304;-6.284;2023-07-31T09:06:46;99611.22;;;15.90;100.00
42633;BME280;28261;53.304;-6.284;2023-07-31T09:08:51;99609.56;;;15.89;100.00
42633;BME280;28261;53.304;-6.284;2023-07-31T09:10:59;99607.91;;;15.88;100.00
42633;BME280;28261;53.304;-6.284;2023-07-31T09:13:05;99608.56;;;15.90;100.00
42633;BME280;28261;53.304;-6.284;2023-07-31T09:15:14;99594.03;;;15.93;100.00
42633;BME280;28261;53.304;-6.284;2023-07-31T09:17:38;99606.41;;;15.94;100.00
42633;BME280;28261;53.304;-6.284;2023-07-31T09:19:43;99608.38;;;15.92;100.00
42633;BME280;28261;53.304;-6.284;2023-07-31T09:21:47;99608.72;;;15.89;100.00
42633;BME280;28261;53.304;-6.284;2023-07-31T09:23:52;99604.22;;;15.89;100.00
42633;BME280;28261;53.304;-6.284;2023-07-31T09:25:56;99611.22;;;15.90;100.00
42633;BME280;28261;53.304;-6.284;2023-07-31T09:28:06;99616.56;;;15.90;100.00
42633;BME280;28261;53.304;-6.284;2023-07-31T09:30:11;99629.78;;;15.92;100.00
42633;BME280;28261;53.304;-6.284;2023-07-31T09:32:16;99635.44;;;15.89;100.00
42633;BME280;28261;53.304;-6.284;2023-07-31T09:34:28;99640.81;;;15.89;100.00
42633;BME280;28261;53.304;-6.284;2023-07-31T09:36:33;99643.63;;;15.87;100.00
42633;BME280;28261;53.304;-6.284;2023-07-31T09:38:43;99649.81;;;15.88;100.00
42633;BME280;28261;53.304;-6.284;2023-07-31T09:40:48;99657.66;;;15.89;100.00
42633;BME280;28261;53.304;-6.284;2023-07-31T09:42:54;99646.31;;;15.87;100.00
42633;BME280;28261;53.304;-6.284;2023-07-31T09:45:09;99646.47;;;15.86;100.00
42633;BME280;28261;53.304;-6.284;2023-07-31T09:47:24;99648.28;;;15.85;100.00
42633;BME280;28261;53.304;-6.284;2023-07-31T09:49:29;99653.00;;;15.83;100.00
42633;BME280;28261;53.304;-6.284;2023-07-31T09:51:33;99650.91;;;15.77;100.00
42633;BME280;28261;53.304;-6.284;2023-07-31T09:53:40;99654.44;;;15.78;100.00
42633;BME280;28261;53.304;-6.284;2023-07-31T09:55:45;99643.25;;;15.74;100.00
42633;BME280;28261;53.304;-6.284;2023-07-31T09:57:50;99646.25;;;15.71;100.00
42633;BME280;28261;53.304;-6.284;2023-07-31T09:59:54;99647.22;;;15.70;100.00
42633;BME280;28261;53.304;-6.284;2023-07-31T10:02:00;99626.03;;;15.68;100.00
42633;BME280;28261;53.304;-6.284;2023-07-31T10:04:05;99634.88;;;15.69;100.00
42633;BME280;28261;53.304;-6.284;2023-07-31T10:06:12;99630.22;;;15.71;100.00
42633;BME280;28261;53.304;-6.284;2023-07-31T10:08:20;99618.84;;;15.77;100.00
42633;BME280;28261;53.304;-6.284;2023-07-31T10:10:27;99623.59;;;15.83;100.00
42633;BME280;28261;53.304;-6.284;2023-07-31T10:12:33;99617.56;;;15.89;100.00
42633;BME280;28261;53.304;-6.284;2023-07-31T10:14:39;99613.72;;;15.92;100.00
42633;BME280;28261;53.304;-6.284;2023-07-31T10:16:45;99615.41;;;15.93;100.00
42633;BME280;28261;53.304;-6.284;2023-07-31T10:18:51;99611.41;;;15.89;100.00
42633;BME280;28261;53.304;-6.284;2023-07-31T10:20:57;99606.22;;;15.87;100.00
42633;BME280;28261;53.304;-6.284;2023-07-31T10:23:02;99603.88;;;15.84;100.00
42633;BME280;28261;53.304;-6.284;2023-07-31T10:25:07;99607.72;;;15.82;100.00
42633;BME280;28261;53.304;-6.284;2023-07-31T10:27:12;99623.94;;;15.80;100.00
42633;BME280;28261;53.304;-6.284;2023-07-31T10:29:17;99619.03;;;15.76;100.00
42633;BME280;28261;53.304;-6.284;2023-07-31T10:31:23;99625.53;;;15.73;100.00
42633;BME280;28261;53.304;-6.284;2023-07-31T10:33:28;99615.88;;;15.72;100.00
42633;BME280;28261;53.304;-6.284;2023-07-31T10:35:35;99618.53;;;15.72;100.00
42633;BME280;28261;53.304;-6.284;2023-07-31T10:37:40;99630.69;;;15.66;100.00
42633;BME280;28261;53.304;-6.284;2023-07-31T10:39:55;99633.84;;;15.62;100.00
42633;BME280;28261;53.304;-6.284;2023-07-31T10:41:59;99631.34;;;15.60;100.00
42633;BME280;28261;53.304;-6.284;2023-07-31T10:44:13;99632.84;;;15.54;100.00
42633;BME280;28261;53.304;-6.284;2023-07-31T10:46:22;99631.50;;;15.50;100.00